sensor_id;sensor_type;location;lat;lon;timestamp;P1;durP1;ratioP1;P2;durP2;ratioP2
50605;SDS011;36557;53.572;10.170;2023-02-18T00:00:15;19.30;;;1.95;;
50605;SDS011;36557;53.572;10.170;2023-02-18T00:02:43;20.30;;;3.45;;
50605;SDS011;36557;53.572;10.170;2023-02-18T00:05:10;18.02;;;2.53;;
50605;SDS011;36557;53.572;10.170;2023-02-18T00:07:37;13.23;;;2.03;;
50605;SDS011;36557;53.572;10.170;2023-02-18T00:10:04;17.10;;;2.47;;
50605;SDS011;36557;53.572;10.170;2023-02-18T00:12:32;22.20;;;2.88;;
50605;SDS011;36557;53.572;10.170;2023-02-18T00:14:58;18.17;;;4.15;;
50605;SDS011;36557;53.572;10.170;2023-02-18T00:17:24;15.93;;;3.20;;
50605;SDS011;36557;53.572;10.170;2023-02-18T00:19:50;14.52;;;2.78;;
50605;SDS011;36557;53.572;10.170;2023-02-18T00:22:15;19.15;;;2.85;;
50605;SDS011;36557;53.572;10.170;2023-02-18T00:24:41;16.55;;;2.80;;
50605;SDS011;36557;53.572;10.170;2023-02-18T00:27:07;20.85;;;3.35;;
50605;SDS011;36557;53.572;10.170;2023-02-18T00:29:33;19.05;;;2.45;;
50605;SDS011;36557;53.572;10.170;2023-02-18T00:31:59;14.48;;;3.00;;
50605;SDS011;36557;53.572;10.170;2023-02-18T00:34:25;17.92;;;3.38;;
50605;SDS011;36557;53.572;10.170;2023-02-18T00:36:51;17.75;;;3.05;;
50605;SDS011;36557;53.572;10.170;2023-02-18T00:39:16;16.35;;;2.70;;
50605;SDS011;36557;53.572;10.170;2023-02-18T00:41:42;21.20;;;2.70;;
50605;SDS011;36557;53.572;10.170;2023-02-18T00:44:09;19.48;;;3.08;;
50605;SDS011;36557;53.572;10.170;2023-02-18T00:46:35;15.88;;;2.97;;
50605;SDS011;36557;53.572;10.170;2023-02-18T00:49:02;19.33;;;3.08;;
50605;SDS011;36557;53.572;10.170;2023-02-18T00:51:28;23.05;;;3.95;;
50605;SDS011;36557;53.572;10.170;2023-02-18T00:53:54;15.88;;;2.15;;
50605;SDS011;36557;53.572;10.170;2023-02-18T00:56:20;12.13;;;2.88;;
50605;SDS011;36557;53.572;10.170;2023-02-18T00:58:46;18.20;;;3.30;;
50605;SDS011;36557;53.572;10.170;2023-02-18T01:01:12;17.48;;;3.75;;
50605;SDS011;36557;53.572;10.170;2023-02-18T01:03:39;14.77;;;2.50;;
50605;SDS011;36557;53.572;10.170;2023-02-18T01:06:06;20.98;;;2.60;;
50605;SDS011;36557;53.572;10.170;2023-02-18T01:08:33;19.08;;;2.75;;
50605;SDS011;36557;53.572;10.170;2023-02-18T01:11:00;14.25;;;1.77;;
50605;SDS011;36557;53.572;10.170;2023-02-18T01:13:27;28.55;;;3.42;;
50605;SDS011;36557;53.572;10.170;2023-02-18T01:15:54;16.60;;;2.40;;
50605;SDS011;36557;53.572;10.170;2023-02-18T01:18:20;18.88;;;2.17;;
50605;SDS011;36557;53.572;10.170;2023-02-18T01:20:46;14.30;;;2.53;;
50605;SDS011;36557;53.572;10.170;2023-02-18T01:23:13;21.77;;;2.85;;
50605;SDS011;36557;53.572;10.170;2023-02-18T01:25:39;27.20;;;2.92;;
50605;SDS011;36557;53.572;10.170;2023-02-18T01:28:06;14.40;;;3.33;;
50605;SDS011;36557;53.572;10.170;2023-02-18T01:30:33;22.30;;;3.03;;
50605;SDS011;36557;53.572;10.170;2023-02-18T01:32:59;19.75;;;2.72;;
50605;SDS011;36557;53.572;10.170;2023-02-18T01:35:25;16.90;;;2.38;;
50605;SDS011;36557;53.572;10.170;2023-02-18T01:37:51;13.18;;;2.47;;
50605;SDS011;36557;53.572;10.170;2023-02-18T01:40:26;13.27;;;2.28;;
50605;SDS011;36557;53.572;10.170;2023-02-18T01:42:53;17.60;;;2.20;;
50605;SDS011;36557;53.572;10.170;2023-02-18T01:50:34;16.38;;;2.15;;
50605;SDS011;36557;53.572;10.170;2023-02-18T01:53:03;20.42;;;2.70;;
50605;SDS011;36557;53.572;10.170;2023-02-18T01:55:30;14.73;;;2.40;;
50605;SDS011;36557;53.572;10.170;2023-02-18T01:57:57;23.40;;;2.67;;
50605;SDS011;36557;53.572;10.170;2023-02-18T02:00:23;20.52;;;3.45;;
50605;SDS011;36557;53.572;10.170;2023-02-18T02:02:50;17.77;;;2.53;;
50605;SDS011;36557;53.572;10.170;2023-02-18T02:05:17;14.18;;;2.33;;
50605;SDS011;36557;53.572;10.170;2023-02-18T02:07:46;22.08;;;3.55;;
50605;SDS011;36557;53.572;10.170;2023-02-18T02:10:18;13.10;;;2.42;;
50605;SDS011;36557;53.572;10.170;2023-02-18T02:21:03;14.43;;;2.53;;
50605;SDS011;36557;53.572;10.170;2023-02-18T02:35:17;15.85;;;2.72;;
50605;SDS011;36557;53.572;10.170;2023-02-18T02:40:59;13.32;;;2.35;;
50605;SDS011;36557;53.572;10.170;2023-02-18T02:43:36;14.60;;;1.98;;
50605;SDS011;36557;53.572;10.170;2023-02-18T02:46:29;18.65;;;3.03;;
50605;SDS011;36557;53.572;10.170;2023-02-18T02:51:43;17.75;;;2.63;;
50605;SDS011;36557;53.572;10.170;2023-02-18T02:54:24;19.83;;;2.35;;
50605;SDS011;36557;53.572;10.170;2023-02-18T02:59:41;15.13;;;2.17;;
50605;SDS011;36557;53.572;10.170;2023-02-18T03:18:33;16.10;;;2.35;;
50605;SDS011;36557;53.572;10.170;2023-02-18T03:21:09;14.27;;;2.13;;
50605;SDS011;36557;53.572;10.170;2023-02-18T03:23:50;13.60;;;2.17;;
50605;SDS011;36557;53.572;10.170;2023-02-18T03:26:20;14.70;;;1.90;;
50605;SDS011;36557;53.572;10.170;2023-02-18T03:28:48;12.43;;;2.00;;
50605;SDS011;36557;53.572;10.170;2023-02-18T03:31:17;11.70;;;1.73;;
50605;SDS011;36557;53.572;10.170;2023-02-18T03:33:51;15.88;;;1.85;;
50605;SDS011;36557;53.572;10.170;2023-02-18T03:36:23;13.27;;;2.17;;
50605;SDS011;36557;53.572;10.170;2023-02-18T03:38:54;11.30;;;1.80;;
50605;SDS011;36557;53.572;10.170;2023-02-18T03:41:25;14.70;;;2.00;;
50605;SDS011;36557;53.572;10.170;2023-02-18T03:43:52;13.30;;;2.47;;
50605;SDS011;36557;53.572;10.170;2023-02-18T03:46:20;15.57;;;2.70;;
50605;SDS011;36557;53.572;10.170;2023-02-18T03:48:46;12.43;;;1.65;;
50605;SDS011;36557;53.572;10.170;2023-02-18T03:51:11;11.45;;;1.98;;
50605;SDS011;36557;53.572;10.170;2023-02-18T03:53:37;18.10;;;2.75;;
50605;SDS011;36557;53.572;10.170;2023-02-18T03:56:03;12.25;;;2.03;;
50605;SDS011;36557;53.572;10.170;2023-02-18T03:58:29;11.85;;;1.90;;
50605;SDS011;36557;53.572;10.170;2023-02-18T04:00:55;9.43;;;2.13;;
50605;SDS011;36557;53.572;10.170;2023-02-18T04:03:21;15.10;;;2.20;;
50605;SDS011;36557;53.572;10.170;2023-02-18T04:05:46;10.65;;;1.60;;
50605;SDS011;36557;53.572;10.170;2023-02-18T04:08:12;9.93;;;1.50;;
50605;SDS011;36557;53.572;10.170;2023-02-18T04:10:38;10.52;;;2.03;;
50605;SDS011;36557;53.572;10.170;2023-02-18T04:13:03;12.73;;;1.90;;
50605;SDS011;36557;53.572;10.170;2023-02-18T04:15:29;12.25;;;1.83;;
50605;SDS011;36557;53.572;10.170;2023-02-18T04:17:55;8.07;;;1.52;;
50605;SDS011;36557;53.572;10.170;2023-02-18T04:20:21;12.02;;;1.83;;
50605;SDS011;36557;53.572;10.170;2023-02-18T04:22:47;15.48;;;2.03;;
50605;SDS011;36557;53.572;10.170;2023-02-18T04:25:13;10.77;;;1.42;;
50605;SDS011;36557;53.572;10.170;2023-02-18T04:27:38;20.15;;;2.20;;
50605;SDS011;36557;53.572;10.170;2023-02-18T04:30:04;11.88;;;1.52;;
50605;SDS011;36557;53.572;10.170;2023-02-18T04:32:31;8.68;;;1.73;;
50605;SDS011;36557;53.572;10.170;2023-02-18T04:34:56;10.73;;;2.03;;
50605;SDS011;36557;53.572;10.170;2023-02-18T04:37:22;12.68;;;1.65;;
50605;SDS011;36557;53.572;10.170;2023-02-18T04:39:48;9.05;;;1.63;;
50605;SDS011;36557;53.572;10.170;2023-02-18T04:42:14;11.18;;;2.38;;
50605;SDS011;36557;53.572;10.170;2023-02-18T04:44:39;10.65;;;1.35;;
50605;SDS011;36557;53.572;10.170;2023-02-18T04:47:05;13.18;;;1.40;;
50605;SDS011;36557;53.572;10.170;2023-02-18T04:49:31;10.50;;;1.30;;
50605;SDS011;36557;53.572;10.170;2023-02-18T04:51:57;9.32;;;2.00;;
50605;SDS011;36557;53.572;10.170;2023-02-18T04:54:23;8.40;;;0.98;;
50605;SDS011;36557;53.572;10.170;2023-02-18T04:56:48;15.43;;;1.83;;
50605;SDS011;36557;53.572;10.170;2023-02-18T04:59:14;11.50;;;1.63;;
50605;SDS011;36557;53.572;10.170;2023-02-18T05:01:41;11.65;;;1.30;;
50605;SDS011;36557;53.572;10.170;2023-02-18T05:04:07;10.60;;;1.55;;
50605;SDS011;36557;53.572;10.170;2023-02-18T05:06:32;13.93;;;1.40;;
50605;SDS011;36557;53.572;10.170;2023-02-18T05:08:59;12.38;;;2.30;;
50605;SDS011;36557;53.572;10.170;2023-02-18T05:11:24;7.35;;;1.30;;
50605;SDS011;36557;53.572;10.170;2023-02-18T05:13:50;9.65;;;1.48;;
50605;SDS011;36557;53.572;10.170;2023-02-18T05:16:16;10.63;;;1.70;;
50605;SDS011;36557;53.572;10.170;2023-02-18T05:18:41;8.18;;;1.55;;
50605;SDS011;36557;53.572;10.170;2023-02-18T05:21:07;9.13;;;1.67;;
50605;SDS011;36557;53.572;10.170;2023-02-18T05:23:33;10.85;;;1.52;;
50605;SDS011;36557;53.572;10.170;2023-02-18T05:25:59;9.95;;;1.73;;
50605;SDS011;36557;53.572;10.170;2023-02-18T05:28:25;7.68;;;1.50;;
50605;SDS011;36557;53.572;10.170;2023-02-18T05:30:50;11.27;;;1.50;;
50605;SDS011;36557;53.572;10.170;2023-02-18T05:33:16;8.75;;;1.48;;
50605;SDS011;36557;53.572;10.170;2023-02-18T05:35:42;9.02;;;1.60;;
50605;SDS011;36557;53.572;10.170;2023-02-18T05:38:07;7.07;;;1.45;;
50605;SDS011;36557;53.572;10.170;2023-02-18T05:40:34;8.23;;;1.42;;
50605;SDS011;36557;53.572;10.170;2023-02-18T05:43:00;10.55;;;1.67;;
50605;SDS011;36557;53.572;10.170;2023-02-18T05:45:25;10.63;;;2.20;;
50605;SDS011;36557;53.572;10.170;2023-02-18T05:47:51;7.45;;;1.30;;
50605;SDS011;36557;53.572;10.170;2023-02-18T05:50:17;7.32;;;1.60;;
50605;SDS011;36557;53.572;10.170;2023-02-18T05:52:42;10.77;;;1.60;;
50605;SDS011;36557;53.572;10.170;2023-02-18T05:55:08;10.10;;;1.65;;
50605;SDS011;36557;53.572;10.170;2023-02-18T05:57:34;10.68;;;1.75;;
50605;SDS011;36557;53.572;10.170;2023-02-18T06:00:00;12.45;;;1.50;;
50605;SDS011;36557;53.572;10.170;2023-02-18T06:02:26;8.50;;;1.45;;
50605;SDS011;36557;53.572;10.170;2023-02-18T06:04:51;8.52;;;2.00;;
50605;SDS011;36557;53.572;10.170;2023-02-18T06:07:17;8.07;;;1.52;;
50605;SDS011;36557;53.572;10.170;2023-02-18T06:09:44;10.02;;;1.73;;
50605;SDS011;36557;53.572;10.170;2023-02-18T06:12:10;10.50;;;1.58;;
50605;SDS011;36557;53.572;10.170;2023-02-18T06:14:36;9.57;;;1.65;;
50605;SDS011;36557;53.572;10.170;2023-02-18T06:17:06;7.78;;;1.73;;
50605;SDS011;36557;53.572;10.170;2023-02-18T06:19:32;11.70;;;1.77;;
50605;SDS011;36557;53.572;10.170;2023-02-18T06:21:58;9.48;;;2.08;;
50605;SDS011;36557;53.572;10.170;2023-02-18T06:24:24;8.45;;;1.73;;
50605;SDS011;36557;53.572;10.170;2023-02-18T06:26:50;6.63;;;1.45;;
50605;SDS011;36557;53.572;10.170;2023-02-18T06:29:16;10.15;;;1.73;;
50605;SDS011;36557;53.572;10.170;2023-02-18T06:31:42;7.35;;;1.10;;
50605;SDS011;36557;53.572;10.170;2023-02-18T06:34:07;7.68;;;1.35;;
50605;SDS011;36557;53.572;10.170;2023-02-18T06:36:33;6.45;;;1.45;;
50605;SDS011;36557;53.572;10.170;2023-02-18T06:39:00;7.95;;;1.70;;
50605;SDS011;36557;53.572;10.170;2023-02-18T06:41:28;7.25;;;1.10;;
50605;SDS011;36557;53.572;10.170;2023-02-18T06:43:53;6.63;;;1.45;;
50605;SDS011;36557;53.572;10.170;2023-02-18T06:46:19;10.77;;;1.92;;
50605;SDS011;36557;53.572;10.170;2023-02-18T06:48:45;7.93;;;2.10;;
50605;SDS011;36557;53.572;10.170;2023-02-18T06:51:11;9.75;;;1.98;;
50605;SDS011;36557;53.572;10.170;2023-02-18T06:53:36;7.90;;;1.45;;
50605;SDS011;36557;53.572;10.170;2023-02-18T06:56:02;4.88;;;1.05;;
50605;SDS011;36557;53.572;10.170;2023-02-18T06:58:28;5.32;;;1.92;;
50605;SDS011;36557;53.572;10.170;2023-02-18T07:00:54;5.60;;;1.92;;
50605;SDS011;36557;53.572;10.170;2023-02-18T07:03:20;7.55;;;2.28;;
50605;SDS011;36557;53.572;10.170;2023-02-18T07:05:45;7.35;;;1.30;;
50605;SDS011;36557;53.572;10.170;2023-02-18T07:08:11;5.80;;;1.38;;
50605;SDS011;36557;53.572;10.170;2023-02-18T07:10:37;9.98;;;1.95;;
50605;SDS011;36557;53.572;10.170;2023-02-18T07:13:03;7.55;;;1.48;;
50605;SDS011;36557;53.572;10.170;2023-02-18T07:15:30;7.93;;;1.77;;
50605;SDS011;36557;53.572;10.170;2023-02-18T07:17:55;6.35;;;1.40;;
50605;SDS011;36557;53.572;10.170;2023-02-18T07:20:21;7.35;;;2.42;;
50605;SDS011;36557;53.572;10.170;2023-02-18T07:22:47;8.35;;;1.98;;
50605;SDS011;36557;53.572;10.170;2023-02-18T07:25:13;7.75;;;2.00;;
50605;SDS011;36557;53.572;10.170;2023-02-18T07:27:39;11.48;;;3.40;;
50605;SDS011;36557;53.572;10.170;2023-02-18T07:30:06;8.05;;;2.10;;
50605;SDS011;36557;53.572;10.170;2023-02-18T07:32:32;8.65;;;1.80;;
50605;SDS011;36557;53.572;10.170;2023-02-18T07:34:58;8.20;;;1.90;;
50605;SDS011;36557;53.572;10.170;2023-02-18T07:37:24;9.02;;;1.67;;
50605;SDS011;36557;53.572;10.170;2023-02-18T07:39:50;8.90;;;1.63;;
50605;SDS011;36557;53.572;10.170;2023-02-18T07:42:16;8.32;;;1.80;;
50605;SDS011;36557;53.572;10.170;2023-02-18T07:44:42;7.35;;;2.42;;
50605;SDS011;36557;53.572;10.170;2023-02-18T07:47:09;7.03;;;2.10;;
50605;SDS011;36557;53.572;10.170;2023-02-18T07:49:38;10.10;;;3.63;;
50605;SDS011;36557;53.572;10.170;2023-02-18T07:52:04;8.77;;;3.63;;
50605;SDS011;36557;53.572;10.170;2023-02-18T07:54:30;10.90;;;2.30;;
50605;SDS011;36557;53.572;10.170;2023-02-18T07:56:55;10.55;;;5.38;;
50605;SDS011;36557;53.572;10.170;2023-02-18T07:59:21;12.88;;;2.95;;
50605;SDS011;36557;53.572;10.170;2023-02-18T08:01:47;12.13;;;2.40;;
50605;SDS011;36557;53.572;10.170;2023-02-18T08:04:13;6.40;;;1.50;;
50605;SDS011;36557;53.572;10.170;2023-02-18T08:06:40;8.35;;;2.30;;
50605;SDS011;36557;53.572;10.170;2023-02-18T08:09:08;9.30;;;1.88;;
50605;SDS011;36557;53.572;10.170;2023-02-18T08:11:34;11.27;;;2.05;;
50605;SDS011;36557;53.572;10.170;2023-02-18T08:14:00;8.57;;;2.78;;
50605;SDS011;36557;53.572;10.170;2023-02-18T08:16:26;10.77;;;2.30;;
50605;SDS011;36557;53.572;10.170;2023-02-18T08:18:53;8.23;;;1.88;;
50605;SDS011;36557;53.572;10.170;2023-02-18T08:21:20;10.35;;;1.92;;
50605;SDS011;36557;53.572;10.170;2023-02-18T08:23:47;11.15;;;2.00;;
50605;SDS011;36557;53.572;10.170;2023-02-18T08:26:14;7.28;;;1.30;;
50605;SDS011;36557;53.572;10.170;2023-02-18T08:28:41;6.47;;;1.83;;
50605;SDS011;36557;53.572;10.170;2023-02-18T08:31:13;11.70;;;2.20;;
50605;SDS011;36557;53.572;10.170;2023-02-18T08:33:41;12.73;;;2.28;;
50605;SDS011;36557;53.572;10.170;2023-02-18T08:36:07;7.53;;;1.90;;
50605;SDS011;36557;53.572;10.170;2023-02-18T08:38:34;6.70;;;1.48;;
50605;SDS011;36557;53.572;10.170;2023-02-18T08:41:01;7.30;;;1.63;;
50605;SDS011;36557;53.572;10.170;2023-02-18T08:43:29;7.05;;;1.45;;
50605;SDS011;36557;53.572;10.170;2023-02-18T08:45:55;9.32;;;1.50;;
50605;SDS011;36557;53.572;10.170;2023-02-18T08:48:22;9.43;;;1.52;;
50605;SDS011;36557;53.572;10.170;2023-02-18T08:50:48;10.20;;;1.77;;
50605;SDS011;36557;53.572;10.170;2023-02-18T08:53:14;11.50;;;1.95;;
50605;SDS011;36557;53.572;10.170;2023-02-18T08:55:41;8.82;;;1.40;;
50605;SDS011;36557;53.572;10.170;2023-02-18T08:58:07;6.38;;;1.20;;
50605;SDS011;36557;53.572;10.170;2023-02-18T09:00:33;9.90;;;2.13;;
50605;SDS011;36557;53.572;10.170;2023-02-18T09:02:59;9.15;;;1.77;;
50605;SDS011;36557;53.572;10.170;2023-02-18T09:05:25;7.75;;;2.00;;
50605;SDS011;36557;53.572;10.170;2023-02-18T09:07:51;5.75;;;1.70;;
50605;SDS011;36557;53.572;10.170;2023-02-18T09:10:17;12.50;;;2.55;;
50605;SDS011;36557;53.572;10.170;2023-02-18T09:12:43;8.45;;;2.45;;
50605;SDS011;36557;53.572;10.170;2023-02-18T09:15:08;9.43;;;2.38;;
50605;SDS011;36557;53.572;10.170;2023-02-18T09:17:34;8.05;;;1.90;;
50605;SDS011;36557;53.572;10.170;2023-02-18T09:20:00;8.85;;;1.92;;
50605;SDS011;36557;53.572;10.170;2023-02-18T09:22:26;9.77;;;2.20;;
50605;SDS011;36557;53.572;10.170;2023-02-18T09:24:52;6.60;;;1.58;;
50605;SDS011;36557;53.572;10.170;2023-02-18T09:27:18;7.47;;;1.73;;
50605;SDS011;36557;53.572;10.170;2023-02-18T09:29:44;8.45;;;1.85;;
50605;SDS011;36557;53.572;10.170;2023-02-18T09:32:09;6.65;;;1.90;;
50605;SDS011;36557;53.572;10.170;2023-02-18T09:34:36;5.80;;;1.48;;
50605;SDS011;36557;53.572;10.170;2023-02-18T09:37:02;9.55;;;1.98;;
50605;SDS011;36557;53.572;10.170;2023-02-18T09:39:29;7.68;;;1.85;;
50605;SDS011;36557;53.572;10.170;2023-02-18T09:41:58;5.22;;;1.83;;
50605;SDS011;36557;53.572;10.170;2023-02-18T09:44:31;11.35;;;2.03;;
50605;SDS011;36557;53.572;10.170;2023-02-18T09:49:42;5.60;;;1.98;;
50605;SDS011;36557;53.572;10.170;2023-02-18T09:52:20;5.05;;;1.30;;
50605;SDS011;36557;53.572;10.170;2023-02-18T09:54:50;5.00;;;1.92;;
50605;SDS011;36557;53.572;10.170;2023-02-18T10:00:06;4.07;;;2.00;;
50605;SDS011;36557;53.572;10.170;2023-02-18T14:40:03;0.98;;;0.70;;
50605;SDS011;36557;53.572;10.170;2023-02-18T14:51:45;1.63;;;1.10;;
50605;SDS011;36557;53.572;10.170;2023-02-18T14:54:17;1.42;;;1.20;;
50605;SDS011;36557;53.572;10.170;2023-02-18T14:56:58;1.83;;;1.00;;
50605;SDS011;36557;53.572;10.170;2023-02-18T14:59:29;1.60;;;1.25;;
50605;SDS011;36557;53.572;10.170;2023-02-18T15:02:01;1.27;;;1.00;;
50605;SDS011;36557;53.572;10.170;2023-02-18T15:04:27;1.88;;;1.40;;
50605;SDS011;36557;53.572;10.170;2023-02-18T15:07:00;1.70;;;1.25;;
50605;SDS011;36557;53.572;10.170;2023-02-18T15:09:28;1.88;;;1.10;;
50605;SDS011;36557;53.572;10.170;2023-02-18T15:14:35;2.25;;;0.80;;
50605;SDS011;36557;53.572;10.170;2023-02-18T15:17:04;2.65;;;1.10;;
50605;SDS011;36557;53.572;10.170;2023-02-18T15:19:42;1.52;;;0.80;;
50605;SDS011;36557;53.572;10.170;2023-02-18T15:22:16;1.58;;;1.00;;
50605;SDS011;36557;53.572;10.170;2023-02-18T15:24:50;1.50;;;1.00;;
50605;SDS011;36557;53.572;10.170;2023-02-18T15:27:22;1.80;;;1.10;;
50605;SDS011;36557;53.572;10.170;2023-02-18T15:29:52;1.58;;;0.70;;
50605;SDS011;36557;53.572;10.170;2023-02-18T15:32:26;1.15;;;0.82;;
50605;SDS011;36557;53.572;10.170;2023-02-18T15:34:55;2.10;;;0.95;;
50605;SDS011;36557;53.572;10.170;2023-02-18T15:37:26;0.90;;;0.73;;
50605;SDS011;36557;53.572;10.170;2023-02-18T15:39:52;1.63;;;0.82;;
50605;SDS011;36557;53.572;10.170;2023-02-18T15:44:51;1.08;;;0.90;;
50605;SDS011;36557;53.572;10.170;2023-02-18T15:47:22;1.55;;;1.10;;
50605;SDS011;36557;53.572;10.170;2023-02-18T15:49:51;1.63;;;0.90;;
50605;SDS011;36557;53.572;10.170;2023-02-18T15:52:23;1.15;;;0.70;;
50605;SDS011;36557;53.572;10.170;2023-02-18T15:54:54;1.00;;;0.60;;
50605;SDS011;36557;53.572;10.170;2023-02-18T15:57:25;1.65;;;0.75;;
50605;SDS011;36557;53.572;10.170;2023-02-18T15:59:54;0.90;;;0.60;;
50605;SDS011;36557;53.572;10.170;2023-02-18T16:02:31;0.95;;;0.68;;
50605;SDS011;36557;53.572;10.170;2023-02-18T16:05:00;0.70;;;0.68;;
50605;SDS011;36557;53.572;10.170;2023-02-18T16:07:28;1.02;;;0.77;;
50605;SDS011;36557;53.572;10.170;2023-02-18T16:12:54;1.30;;;1.02;;
50605;SDS011;36557;53.572;10.170;2023-02-18T16:15:25;2.10;;;1.90;;
50605;SDS011;36557;53.572;10.170;2023-02-18T16:17:54;2.00;;;1.52;;
50605;SDS011;36557;53.572;10.170;2023-02-18T16:22:58;2.28;;;1.30;;
50605;SDS011;36557;53.572;10.170;2023-02-18T16:28:44;7.68;;;5.35;;
50605;SDS011;36557;53.572;10.170;2023-02-18T16:31:06;34.70;;;16.10;;
50605;SDS011;36557;53.572;10.170;2023-02-18T16:33:32;8.93;;;5.68;;
50605;SDS011;36557;53.572;10.170;2023-02-18T16:35:58;3.58;;;2.33;;
50605;SDS011;36557;53.572;10.170;2023-02-18T16:38:24;8.27;;;3.95;;
50605;SDS011;36557;53.572;10.170;2023-02-18T16:40:51;33.60;;;17.55;;
50605;SDS011;36557;53.572;10.170;2023-02-18T16:43:19;17.15;;;7.97;;
50605;SDS011;36557;53.572;10.170;2023-02-18T16:45:55;11.63;;;6.00;;
50605;SDS011;36557;53.572;10.170;2023-02-18T16:50:51;3.25;;;2.15;;
50605;SDS011;36557;53.572;10.170;2023-02-18T16:53:17;2.60;;;1.55;;
50605;SDS011;36557;53.572;10.170;2023-02-18T16:55:44;23.58;;;10.75;;
50605;SDS011;36557;53.572;10.170;2023-02-18T16:58:10;111.10;;;44.17;;
50605;SDS011;36557;53.572;10.170;2023-02-18T17:00:36;13.57;;;6.80;;
50605;SDS011;36557;53.572;10.170;2023-02-18T17:03:02;6.22;;;3.03;;
50605;SDS011;36557;53.572;10.170;2023-02-18T17:05:30;7.38;;;4.65;;
50605;SDS011;36557;53.572;10.170;2023-02-18T17:08:45;20.60;;;17.45;;
50605;SDS011;36557;53.572;10.170;2023-02-18T17:10:55;5.85;;;5.15;;
50605;SDS011;36557;53.572;10.170;2023-02-18T17:13:26;2.75;;;2.45;;
50605;SDS011;36557;53.572;10.170;2023-02-18T17:15:54;2.10;;;1.63;;
50605;SDS011;36557;53.572;10.170;2023-02-18T17:18:21;11.48;;;8.73;;
50605;SDS011;36557;53.572;10.170;2023-02-18T17:20:48;5.00;;;3.30;;
50605;SDS011;36557;53.572;10.170;2023-02-18T17:23:16;3.00;;;2.30;;
50605;SDS011;36557;53.572;10.170;2023-02-18T17:25:45;3.00;;;1.90;;
50605;SDS011;36557;53.572;10.170;2023-02-18T17:28:13;3.08;;;2.20;;
50605;SDS011;36557;53.572;10.170;2023-02-18T17:30:43;4.40;;;2.80;;
50605;SDS011;36557;53.572;10.170;2023-02-18T17:33:20;3.40;;;2.38;;
50605;SDS011;36557;53.572;10.170;2023-02-18T17:35:49;3.08;;;1.65;;
50605;SDS011;36557;53.572;10.170;2023-02-18T17:38:16;2.83;;;1.60;;
50605;SDS011;36557;53.572;10.170;2023-02-18T17:40:43;2.75;;;1.50;;
50605;SDS011;36557;53.572;10.170;2023-02-18T17:43:11;1.80;;;1.33;;
50605;SDS011;36557;53.572;10.170;2023-02-18T17:45:39;2.25;;;1.67;;
50605;SDS011;36557;53.572;10.170;2023-02-18T17:48:17;2.53;;;1.92;;
50605;SDS011;36557;53.572;10.170;2023-02-18T17:50:43;4.10;;;2.10;;
50605;SDS011;36557;53.572;10.170;2023-02-18T17:53:12;2.92;;;2.20;;
50605;SDS011;36557;53.572;10.170;2023-02-18T17:55:39;3.75;;;2.70;;
50605;SDS011;36557;53.572;10.170;2023-02-18T17:58:06;2.88;;;1.90;;
50605;SDS011;36557;53.572;10.170;2023-02-18T18:00:34;4.97;;;2.85;;
50605;SDS011;36557;53.572;10.170;2023-02-18T18:03:02;5.20;;;3.30;;
50605;SDS011;36557;53.572;10.170;2023-02-18T18:05:32;4.53;;;3.78;;
50605;SDS011;36557;53.572;10.170;2023-02-18T18:08:00;3.25;;;2.53;;
50605;SDS011;36557;53.572;10.170;2023-02-18T18:10:27;3.83;;;2.88;;
50605;SDS011;36557;53.572;10.170;2023-02-18T18:13:00;4.70;;;3.00;;
50605;SDS011;36557;53.572;10.170;2023-02-18T18:15:32;4.30;;;3.20;;
50605;SDS011;36557;53.572;10.170;2023-02-18T18:18:00;5.30;;;4.00;;
50605;SDS011;36557;53.572;10.170;2023-02-18T18:20:27;5.35;;;3.65;;
50605;SDS011;36557;53.572;10.170;2023-02-18T18:22:55;4.32;;;3.35;;
50605;SDS011;36557;53.572;10.170;2023-02-18T18:25:26;5.60;;;3.55;;
50605;SDS011;36557;53.572;10.170;2023-02-18T18:27:53;6.13;;;4.22;;
50605;SDS011;36557;53.572;10.170;2023-02-18T18:30:21;7.35;;;4.65;;
50605;SDS011;36557;53.572;10.170;2023-02-18T18:32:52;6.57;;;3.90;;
50605;SDS011;36557;53.572;10.170;2023-02-18T18:35:19;6.22;;;3.95;;
50605;SDS011;36557;53.572;10.170;2023-02-18T18:37:50;7.05;;;4.57;;
50605;SDS011;36557;53.572;10.170;2023-02-18T18:40:17;8.68;;;5.20;;
50605;SDS011;36557;53.572;10.170;2023-02-18T18:42:44;10.52;;;6.50;;
50605;SDS011;36557;53.572;10.170;2023-02-18T18:47:47;13.65;;;8.27;;
50605;SDS011;36557;53.572;10.170;2023-02-18T18:50:13;20.30;;;11.93;;
50605;SDS011;36557;53.572;10.170;2023-02-18T18:52:39;27.02;;;15.85;;
50605;SDS011;36557;53.572;10.170;2023-02-18T18:55:17;24.83;;;14.20;;
50605;SDS011;36557;53.572;10.170;2023-02-18T18:57:45;23.50;;;13.02;;
50605;SDS011;36557;53.572;10.170;2023-02-18T19:00:11;25.55;;;13.32;;
50605;SDS011;36557;53.572;10.170;2023-02-18T19:02:38;26.90;;;20.30;;
50605;SDS011;36557;53.572;10.170;2023-02-18T19:05:05;17.23;;;11.05;;
50605;SDS011;36557;53.572;10.170;2023-02-18T19:07:34;19.02;;;11.10;;
50605;SDS011;36557;53.572;10.170;2023-02-18T19:10:00;12.93;;;8.23;;
50605;SDS011;36557;53.572;10.170;2023-02-18T19:12:26;16.85;;;8.93;;
50605;SDS011;36557;53.572;10.170;2023-02-18T19:14:52;12.25;;;7.22;;
50605;SDS011;36557;53.572;10.170;2023-02-18T19:17:17;15.30;;;9.43;;
50605;SDS011;36557;53.572;10.170;2023-02-18T19:19:43;16.98;;;10.57;;
50605;SDS011;36557;53.572;10.170;2023-02-18T19:22:09;14.85;;;9.52;;
50605;SDS011;36557;53.572;10.170;2023-02-18T19:24:35;15.57;;;10.50;;
50605;SDS011;36557;53.572;10.170;2023-02-18T19:27:01;14.70;;;8.75;;
50605;SDS011;36557;53.572;10.170;2023-02-18T19:29:26;13.48;;;8.05;;
50605;SDS011;36557;53.572;10.170;2023-02-18T19:31:52;11.68;;;6.95;;
50605;SDS011;36557;53.572;10.170;2023-02-18T19:34:18;15.43;;;9.13;;
50605;SDS011;36557;53.572;10.170;2023-02-18T19:36:44;17.63;;;10.68;;
50605;SDS011;36557;53.572;10.170;2023-02-18T19:39:10;15.13;;;9.27;;
50605;SDS011;36557;53.572;10.170;2023-02-18T19:41:36;17.00;;;10.45;;
50605;SDS011;36557;53.572;10.170;2023-02-18T19:44:02;14.98;;;8.93;;
50605;SDS011;36557;53.572;10.170;2023-02-18T19:46:28;17.40;;;10.23;;
50605;SDS011;36557;53.572;10.170;2023-02-18T19:48:55;16.42;;;9.38;;
50605;SDS011;36557;53.572;10.170;2023-02-18T19:51:21;16.10;;;10.25;;
50605;SDS011;36557;53.572;10.170;2023-02-18T19:53:48;16.52;;;9.70;;
50605;SDS011;36557;53.572;10.170;2023-02-18T19:56:14;13.82;;;8.80;;
50605;SDS011;36557;53.572;10.170;2023-02-18T19:58:40;14.43;;;8.38;;
50605;SDS011;36557;53.572;10.170;2023-02-18T20:01:10;12.43;;;8.07;;
50605;SDS011;36557;53.572;10.170;2023-02-18T20:03:39;12.35;;;7.97;;
50605;SDS011;36557;53.572;10.170;2023-02-18T20:06:05;13.18;;;8.32;;
50605;SDS011;36557;53.572;10.170;2023-02-18T20:08:37;12.38;;;8.10;;
50605;SDS011;36557;53.572;10.170;2023-02-18T20:11:03;13.38;;;8.50;;
50605;SDS011;36557;53.572;10.170;2023-02-18T20:13:29;11.32;;;7.65;;
50605;SDS011;36557;53.572;10.170;2023-02-18T20:15:55;11.25;;;7.90;;
50605;SDS011;36557;53.572;10.170;2023-02-18T20:18:20;12.73;;;8.05;;
50605;SDS011;36557;53.572;10.170;2023-02-18T20:20:47;13.18;;;8.20;;
50605;SDS011;36557;53.572;10.170;2023-02-18T20:23:13;12.52;;;7.75;;
50605;SDS011;36557;53.572;10.170;2023-02-18T20:25:39;10.73;;;7.25;;
50605;SDS011;36557;53.572;10.170;2023-02-18T20:28:05;10.35;;;7.05;;